AAL853 KDEN-KPHX
Flight info
| Callsign | AAL853 |
|---|---|
| Flight time | 1h 46m |
| Altitude | 38000 |
| Route | SMMUR2 DAAYE GUP EAGUL6 |
| Aircraft | B77W/H-SDE1E2E3FGHIJ2J3J4J5M1RWXY/LB1D1 |
Departure
| Time | 2026-05-05 21:00 |
|---|---|
| Airport | Denver International Airport (KDEN) |
Arrival
| Time | 2026-05-05 22:46 |
|---|---|
| Airport | Phoenix Sky Harbor International Airport (KPHX) |
| Time | Latitude | Longitude | Altitude | Speed | Heading |
|---|---|---|---|---|---|
| 2026-05-05 20:34 | 39.85461 | -104.67888 | 5388 ft | 0 kts | 180° |
| 2026-05-05 20:50 | 39.85475 | -104.67888 | 5387 ft | 4 kts | 178° |
| 2026-05-05 20:50 | 39.85511 | -104.67886 | 5386 ft | 4 kts | 201° |
| 2026-05-05 20:50 | 39.85533 | -104.67868 | 5387 ft | 4 kts | 231° |
| 2026-05-05 20:51 | 39.85543 | -104.67840 | 5382 ft | 2 kts | 269° |
| 2026-05-05 20:51 | 39.85543 | -104.67838 | 5382 ft | 0 kts | 270° |
| 2026-05-05 20:53 | 39.85543 | -104.67839 | 5388 ft | 2 kts | 270° |
| 2026-05-05 20:54 | 39.85542 | -104.67917 | 5388 ft | 10 kts | 264° |
| 2026-05-05 20:54 | 39.85535 | -104.68009 | 5388 ft | 10 kts | 273° |
| 2026-05-05 20:54 | 39.85537 | -104.68102 | 5388 ft | 10 kts | 268° |
| 2026-05-05 20:54 | 39.85539 | -104.68195 | 5388 ft | 10 kts | 273° |
| 2026-05-05 20:55 | 39.85547 | -104.68289 | 5385 ft | 10 kts | 275° |
| 2026-05-05 20:55 | 39.85549 | -104.68352 | 5385 ft | 0 kts | 272° |
| 2026-05-05 20:55 | 39.85549 | -104.68355 | 5385 ft | 4 kts | 272° |
| 2026-05-05 20:55 | 39.85519 | -104.68406 | 5378 ft | 9 kts | 196° |
| 2026-05-05 20:56 | 39.85460 | -104.68407 | 5384 ft | 9 kts | 174° |
| 2026-05-05 20:56 | 39.85401 | -104.68402 | 5380 ft | 9 kts | 179° |
| 2026-05-05 20:56 | 39.85345 | -104.68402 | 5382 ft | 6 kts | 180° |
| 2026-05-05 20:56 | 39.85315 | -104.68433 | 5381 ft | 7 kts | 243° |
| 2026-05-05 20:57 | 39.85295 | -104.68498 | 5381 ft | 8 kts | 237° |
| 2026-05-05 20:57 | 39.85291 | -104.68506 | 5380 ft | 3 kts | 236° |
| 2026-05-05 20:57 | 39.85219 | -104.68616 | 5378 ft | 25 kts | 248° |
| 2026-05-05 20:57 | 39.85201 | -104.68851 | 5364 ft | 28 kts | 268° |
| 2026-05-05 20:58 | 39.85196 | -104.69107 | 5358 ft | 24 kts | 269° |
| 2026-05-05 20:58 | 39.85200 | -104.69337 | 5348 ft | 27 kts | 272° |
| 2026-05-05 20:58 | 39.85202 | -104.69497 | 5345 ft | 9 kts | 269° |
| 2026-05-05 20:58 | 39.85201 | -104.69578 | 5345 ft | 9 kts | 269° |
| 2026-05-05 20:59 | 39.85201 | -104.69629 | 5345 ft | 8 kts | 274° |
| 2026-05-05 20:59 | 39.85248 | -104.69661 | 5342 ft | 9 kts | 6° |
| 2026-05-05 20:59 | 39.85418 | -104.69655 | 5343 ft | 56 kts | 0° |
| 2026-05-05 20:59 | 39.86397 | -104.69619 | 5340 ft | 152 kts | 354° |
| 2026-05-05 21:00 | 39.87187 | -104.69578 | 5344 ft | 187 kts | 6° |
| 2026-05-05 21:00 | 39.88571 | -104.69494 | 5671 ft | 205 kts | 5° |
| 2026-05-05 21:00 | 39.90051 | -104.69338 | 6333 ft | 218 kts | 9° |
| 2026-05-05 21:00 | 39.91522 | -104.69018 | 7255 ft | 215 kts | 15° |
| 2026-05-05 21:01 | 39.92952 | -104.68535 | 8052 ft | 211 kts | 21° |
| 2026-05-05 21:01 | 39.94351 | -104.67872 | 8599 ft | 218 kts | 27° |
| 2026-05-05 21:01 | 39.95755 | -104.66997 | 9051 ft | 228 kts | 33° |
| 2026-05-05 21:01 | 39.97140 | -104.65914 | 9554 ft | 237 kts | 34° |
| 2026-05-05 21:02 | 39.98762 | -104.65163 | 9654 ft | 263 kts | 359° |
| 2026-05-05 21:02 | 40.00573 | -104.65843 | 9897 ft | 283 kts | 326° |
| 2026-05-05 21:02 | 40.02231 | -104.67312 | 10226 ft | 299 kts | 328° |
| 2026-05-05 21:02 | 40.04201 | -104.68447 | 10413 ft | 328 kts | 340° |
| 2026-05-05 21:03 | 40.06525 | -104.69200 | 10655 ft | 356 kts | 348° |
| 2026-05-05 21:03 | 40.09076 | -104.69652 | 10974 ft | 379 kts | 353° |
| 2026-05-05 21:03 | 40.11702 | -104.69920 | 11778 ft | 388 kts | 354° |
| 2026-05-05 21:03 | 40.14429 | -104.70177 | 12745 ft | 395 kts | 353° |
| 2026-05-05 21:04 | 40.17183 | -104.70527 | 13801 ft | 400 kts | 349° |
| 2026-05-05 21:04 | 40.19967 | -104.71026 | 14710 ft | 406 kts | 348° |
| 2026-05-05 21:04 | 40.22796 | -104.71547 | 15632 ft | 411 kts | 348° |
| 2026-05-05 21:04 | 40.25636 | -104.72085 | 16648 ft | 413 kts | 346° |
| 2026-05-05 21:05 | 40.28445 | -104.72707 | 17667 ft | 414 kts | 344° |
| 2026-05-05 21:05 | 40.31293 | -104.73449 | 18621 ft | 417 kts | 342° |
| 2026-05-05 21:05 | 40.34074 | -104.74439 | 19315 ft | 410 kts | 330° |
| 2026-05-05 21:05 | 40.36366 | -104.76556 | 19997 ft | 402 kts | 307° |
| 2026-05-05 21:06 | 40.37854 | -104.79600 | 20845 ft | 396 kts | 290° |
| 2026-05-05 21:06 | 40.38621 | -104.83011 | 21659 ft | 396 kts | 277° |
| 2026-05-05 21:06 | 40.38733 | -104.86631 | 22437 ft | 400 kts | 264° |
| 2026-05-05 21:06 | 40.38093 | -104.90193 | 23203 ft | 406 kts | 249° |
| 2026-05-05 21:07 | 40.36637 | -104.93414 | 23836 ft | 417 kts | 232° |
| 2026-05-05 21:07 | 40.34404 | -104.95939 | 24310 ft | 433 kts | 214° |
| 2026-05-05 21:07 | 40.31641 | -104.97521 | 24902 ft | 440 kts | 202° |
| 2026-05-05 21:07 | 40.28812 | -104.98979 | 25207 ft | 435 kts | 212° |
| 2026-05-05 21:08 | 40.26114 | -105.00793 | 25337 ft | 444 kts | 204° |
| 2026-05-05 21:08 | 40.23030 | -105.01583 | 25798 ft | 460 kts | 188° |
| 2026-05-05 21:08 | 40.19802 | -105.01599 | 26518 ft | 464 kts | 182° |
| 2026-05-05 21:08 | 40.16569 | -105.01390 | 27164 ft | 467 kts | 181° |
| 2026-05-05 21:09 | 40.13350 | -105.01204 | 27679 ft | 470 kts | 182° |
| 2026-05-05 21:09 | 40.10056 | -105.01123 | 28142 ft | 474 kts | 184° |
| 2026-05-05 21:09 | 40.06737 | -105.01155 | 28601 ft | 478 kts | 185° |
| 2026-05-05 21:09 | 40.03403 | -105.01272 | 29086 ft | 480 kts | 186° |
| 2026-05-05 21:10 | 40.00042 | -105.01438 | 29555 ft | 483 kts | 186° |
| 2026-05-05 21:10 | 39.96707 | -105.01624 | 29983 ft | 486 kts | 186° |
| 2026-05-05 21:10 | 39.93323 | -105.01818 | 30437 ft | 486 kts | 187° |
| 2026-05-05 21:10 | 39.89938 | -105.02007 | 31026 ft | 482 kts | 187° |
| 2026-05-05 21:11 | 39.86604 | -105.02186 | 31771 ft | 476 kts | 187° |
| 2026-05-05 21:11 | 39.83322 | -105.02357 | 32524 ft | 468 kts | 188° |
| 2026-05-05 21:11 | 39.80085 | -105.02524 | 33234 ft | 463 kts | 189° |
| 2026-05-05 21:11 | 39.76875 | -105.02690 | 33883 ft | 458 kts | 189° |
| 2026-05-05 21:12 | 39.73730 | -105.02853 | 34382 ft | 455 kts | 189° |
| 2026-05-05 21:12 | 39.70566 | -105.03020 | 34748 ft | 455 kts | 190° |
| 2026-05-05 21:12 | 39.67394 | -105.03188 | 35071 ft | 455 kts | 190° |
| 2026-05-05 21:12 | 39.64225 | -105.03356 | 35429 ft | 455 kts | 190° |
| 2026-05-05 21:13 | 39.61096 | -105.03519 | 35799 ft | 453 kts | 190° |
| 2026-05-05 21:13 | 39.57948 | -105.03681 | 36165 ft | 452 kts | 190° |
| 2026-05-05 21:13 | 39.54806 | -105.03844 | 36513 ft | 451 kts | 190° |
| 2026-05-05 21:13 | 39.51655 | -105.04008 | 36857 ft | 451 kts | 190° |
| 2026-05-05 21:14 | 39.48516 | -105.04170 | 37156 ft | 450 kts | 191° |
| 2026-05-05 21:14 | 39.45435 | -105.04327 | 37606 ft | 446 kts | 191° |
| 2026-05-05 21:14 | 39.42340 | -105.04486 | 37982 ft | 445 kts | 191° |
| 2026-05-05 21:14 | 39.39226 | -105.04649 | 37934 ft | 449 kts | 191° |
| 2026-05-05 21:15 | 39.32970 | -105.04974 | 37944 ft | 447 kts | 191° |
| 2026-05-05 21:15 | 39.26818 | -105.05286 | 37900 ft | 443 kts | 191° |
| 2026-05-05 21:16 | 39.20673 | -105.05603 | 37921 ft | 441 kts | 191° |
| 2026-05-05 21:16 | 39.14731 | -105.06799 | 37930 ft | 425 kts | 203° |
| 2026-05-05 21:17 | 39.09187 | -105.09372 | 37885 ft | 421 kts | 213° |
| 2026-05-05 21:17 | 39.03961 | -105.12772 | 37881 ft | 424 kts | 213° |
| 2026-05-05 21:18 | 38.98688 | -105.16239 | 37838 ft | 426 kts | 213° |
| 2026-05-05 21:18 | 38.93402 | -105.19678 | 37765 ft | 426 kts | 213° |
| 2026-05-05 21:19 | 38.88144 | -105.23073 | 37692 ft | 424 kts | 213° |
| 2026-05-05 21:19 | 38.82866 | -105.26470 | 37650 ft | 423 kts | 213° |
| 2026-05-05 21:20 | 38.77598 | -105.29855 | 37672 ft | 420 kts | 213° |
| 2026-05-05 21:20 | 38.72418 | -105.33179 | 37678 ft | 417 kts | 213° |
| 2026-05-05 21:21 | 38.67261 | -105.36484 | 37684 ft | 414 kts | 213° |
| 2026-05-05 21:21 | 38.62116 | -105.39777 | 37703 ft | 412 kts | 213° |
| 2026-05-05 21:22 | 38.56980 | -105.43060 | 37706 ft | 412 kts | 213° |
| 2026-05-05 21:22 | 38.51845 | -105.46335 | 37723 ft | 411 kts | 213° |
| 2026-05-05 21:23 | 38.46765 | -105.49571 | 37718 ft | 411 kts | 213° |
| 2026-05-05 21:23 | 38.41632 | -105.52823 | 37718 ft | 411 kts | 213° |
| 2026-05-05 21:24 | 38.36476 | -105.56029 | 37718 ft | 412 kts | 213° |
| 2026-05-05 21:24 | 38.31341 | -105.59208 | 37710 ft | 411 kts | 213° |
| 2026-05-05 21:25 | 38.26202 | -105.62393 | 37711 ft | 410 kts | 213° |
| 2026-05-05 21:25 | 38.21061 | -105.65578 | 37689 ft | 410 kts | 213° |
| 2026-05-05 21:26 | 38.15948 | -105.68741 | 37674 ft | 409 kts | 213° |
| 2026-05-05 21:26 | 38.10809 | -105.71918 | 37682 ft | 409 kts | 213° |
| 2026-05-05 21:27 | 38.05715 | -105.75067 | 37671 ft | 410 kts | 214° |
| 2026-05-05 21:27 | 38.00983 | -105.78935 | 37623 ft | 401 kts | 222° |
| 2026-05-05 21:28 | 37.96722 | -105.83427 | 37629 ft | 394 kts | 229° |
| 2026-05-05 21:28 | 37.92890 | -105.88320 | 37622 ft | 393 kts | 229° |
| 2026-05-05 21:29 | 37.89052 | -105.93262 | 37632 ft | 392 kts | 229° |
| 2026-05-05 21:29 | 37.85206 | -105.98190 | 37664 ft | 393 kts | 229° |
| 2026-05-05 21:30 | 37.81368 | -106.03086 | 37714 ft | 394 kts | 229° |
| 2026-05-05 21:30 | 37.77500 | -106.08006 | 37731 ft | 395 kts | 229° |
| 2026-05-05 21:31 | 37.73637 | -106.12907 | 37796 ft | 395 kts | 229° |
| 2026-05-05 21:31 | 37.69759 | -106.17822 | 37831 ft | 395 kts | 229° |
| 2026-05-05 21:32 | 37.65869 | -106.22743 | 37859 ft | 395 kts | 229° |
| 2026-05-05 21:32 | 37.61982 | -106.27653 | 37858 ft | 395 kts | 229° |
| 2026-05-05 21:33 | 37.58121 | -106.32522 | 37840 ft | 395 kts | 229° |
| 2026-05-05 21:33 | 37.54228 | -106.37425 | 37820 ft | 395 kts | 229° |
| 2026-05-05 21:34 | 37.50293 | -106.42378 | 37804 ft | 404 kts | 229° |
| 2026-05-05 21:34 | 37.46301 | -106.47390 | 37781 ft | 408 kts | 229° |
| 2026-05-05 21:35 | 37.42252 | -106.52465 | 37794 ft | 411 kts | 229° |
| 2026-05-05 21:35 | 37.38201 | -106.57530 | 37770 ft | 413 kts | 229° |
| 2026-05-05 21:36 | 37.34131 | -106.62612 | 37780 ft | 410 kts | 229° |
| 2026-05-05 21:36 | 37.30112 | -106.67622 | 37793 ft | 407 kts | 229° |
| 2026-05-05 21:37 | 37.26094 | -106.72626 | 37823 ft | 406 kts | 229° |
| 2026-05-05 21:37 | 37.22097 | -106.77596 | 37801 ft | 403 kts | 229° |
| 2026-05-05 21:38 | 37.18113 | -106.82541 | 37795 ft | 400 kts | 229° |
| 2026-05-05 21:38 | 37.14186 | -106.87409 | 37789 ft | 398 kts | 229° |
| 2026-05-05 21:39 | 37.10246 | -106.92285 | 37773 ft | 398 kts | 229° |
| 2026-05-05 21:39 | 37.06300 | -106.97163 | 37778 ft | 399 kts | 229° |
| 2026-05-05 21:40 | 37.02344 | -107.02043 | 37760 ft | 400 kts | 229° |
| 2026-05-05 21:40 | 36.98369 | -107.06939 | 37769 ft | 401 kts | 228° |
| 2026-05-05 21:41 | 36.94402 | -107.11819 | 37756 ft | 403 kts | 228° |
| 2026-05-05 21:41 | 36.90401 | -107.16732 | 37749 ft | 402 kts | 228° |
| 2026-05-05 21:42 | 36.86411 | -107.21622 | 37739 ft | 401 kts | 228° |
| 2026-05-05 21:42 | 36.82451 | -107.26472 | 37730 ft | 399 kts | 228° |
| 2026-05-05 21:43 | 36.78481 | -107.31325 | 37745 ft | 398 kts | 228° |
| 2026-05-05 21:43 | 36.74547 | -107.36124 | 37743 ft | 398 kts | 228° |
| 2026-05-05 21:44 | 36.70590 | -107.40944 | 37763 ft | 397 kts | 228° |
| 2026-05-05 21:44 | 36.66640 | -107.45751 | 37750 ft | 397 kts | 228° |
| 2026-05-05 21:45 | 36.62678 | -107.50565 | 37757 ft | 395 kts | 227° |
| 2026-05-05 21:45 | 36.58773 | -107.55301 | 37765 ft | 394 kts | 227° |
| 2026-05-05 21:46 | 36.54848 | -107.60054 | 37776 ft | 392 kts | 227° |
| 2026-05-05 21:46 | 36.50941 | -107.64780 | 37790 ft | 391 kts | 227° |
| 2026-05-05 21:47 | 36.47058 | -107.69468 | 37804 ft | 390 kts | 227° |
| 2026-05-05 21:47 | 36.43158 | -107.74172 | 37801 ft | 390 kts | 227° |
| 2026-05-05 21:48 | 36.39262 | -107.78864 | 37818 ft | 390 kts | 227° |
| 2026-05-05 21:48 | 36.35377 | -107.83535 | 37794 ft | 390 kts | 227° |
| 2026-05-05 21:49 | 36.32142 | -107.87417 | 37820 ft | 388 kts | 227° |
| 2026-05-05 21:49 | 36.28271 | -107.92059 | 37831 ft | 387 kts | 227° |
| 2026-05-05 21:50 | 36.24403 | -107.96690 | 37833 ft | 386 kts | 227° |
| 2026-05-05 21:50 | 36.20542 | -108.01308 | 37832 ft | 385 kts | 227° |
| 2026-05-05 21:51 | 36.16705 | -108.05889 | 37830 ft | 385 kts | 227° |
| 2026-05-05 21:51 | 36.12843 | -108.10493 | 37833 ft | 384 kts | 227° |
| 2026-05-05 21:52 | 36.07069 | -108.17365 | 37821 ft | 385 kts | 227° |
| 2026-05-05 21:53 | 36.03206 | -108.21953 | 37810 ft | 384 kts | 227° |
| 2026-05-05 21:53 | 35.99376 | -108.26496 | 37826 ft | 384 kts | 227° |
| 2026-05-05 21:54 | 35.95517 | -108.31068 | 37825 ft | 384 kts | 227° |
| 2026-05-05 21:54 | 35.91668 | -108.35621 | 37817 ft | 384 kts | 227° |
| 2026-05-05 21:55 | 35.87807 | -108.40182 | 37826 ft | 384 kts | 227° |
| 2026-05-05 21:55 | 35.83934 | -108.44751 | 37811 ft | 385 kts | 226° |
| 2026-05-05 21:56 | 35.80045 | -108.49331 | 37817 ft | 387 kts | 226° |
| 2026-05-05 21:56 | 35.76170 | -108.53889 | 37805 ft | 387 kts | 227° |
| 2026-05-05 21:57 | 35.72269 | -108.58469 | 37821 ft | 388 kts | 227° |
| 2026-05-05 21:57 | 35.68351 | -108.63066 | 37815 ft | 388 kts | 226° |
| 2026-05-05 21:58 | 35.64435 | -108.67652 | 37827 ft | 389 kts | 226° |
| 2026-05-05 21:58 | 35.60532 | -108.72217 | 37822 ft | 389 kts | 226° |
| 2026-05-05 21:59 | 35.56594 | -108.76816 | 38028 ft | 389 kts | 226° |
| 2026-05-05 21:59 | 35.52686 | -108.81375 | 38034 ft | 390 kts | 226° |
| 2026-05-05 22:00 | 35.48740 | -108.85971 | 38025 ft | 390 kts | 226° |
| 2026-05-05 22:00 | 35.44920 | -108.90640 | 38001 ft | 388 kts | 229° |
| 2026-05-05 22:01 | 35.41224 | -108.95480 | 37966 ft | 388 kts | 229° |
| 2026-05-05 22:01 | 35.37536 | -109.00308 | 37918 ft | 388 kts | 229° |
| 2026-05-05 22:02 | 35.33846 | -109.05099 | 37890 ft | 387 kts | 229° |
| 2026-05-05 22:02 | 35.30137 | -109.09891 | 37845 ft | 388 kts | 229° |
| 2026-05-05 22:03 | 35.26416 | -109.14689 | 37825 ft | 389 kts | 229° |
| 2026-05-05 22:03 | 35.22695 | -109.19478 | 37823 ft | 390 kts | 229° |
| 2026-05-05 22:04 | 35.18951 | -109.24290 | 37822 ft | 391 kts | 229° |
| 2026-05-05 22:04 | 35.15201 | -109.29102 | 37815 ft | 390 kts | 229° |
| 2026-05-05 22:05 | 35.11463 | -109.33893 | 37819 ft | 390 kts | 229° |
| 2026-05-05 22:05 | 35.07709 | -109.38698 | 37819 ft | 391 kts | 229° |
| 2026-05-05 22:06 | 35.03950 | -109.43501 | 37816 ft | 391 kts | 229° |
| 2026-05-05 22:06 | 35.00212 | -109.48273 | 37827 ft | 391 kts | 229° |
| 2026-05-05 22:07 | 34.96443 | -109.53077 | 37816 ft | 392 kts | 229° |
| 2026-05-05 22:07 | 34.92661 | -109.57890 | 37807 ft | 392 kts | 229° |
| 2026-05-05 22:08 | 34.88900 | -109.62670 | 37808 ft | 393 kts | 229° |
| 2026-05-05 22:08 | 34.85108 | -109.67484 | 37802 ft | 392 kts | 229° |
| 2026-05-05 22:09 | 34.81364 | -109.72238 | 37800 ft | 390 kts | 229° |
| 2026-05-05 22:09 | 34.77617 | -109.77014 | 37804 ft | 389 kts | 229° |
| 2026-05-05 22:10 | 34.73874 | -109.81778 | 37823 ft | 389 kts | 229° |
| 2026-05-05 22:10 | 34.70370 | -109.86780 | 37809 ft | 387 kts | 239° |
| 2026-05-05 22:11 | 34.68118 | -109.92687 | 37809 ft | 387 kts | 244° |
| 2026-05-05 22:11 | 34.65925 | -109.98688 | 37822 ft | 388 kts | 244° |
| 2026-05-05 22:12 | 34.63710 | -110.04661 | 37821 ft | 390 kts | 244° |
| 2026-05-05 22:12 | 34.61465 | -110.10675 | 37828 ft | 391 kts | 244° |
| 2026-05-05 22:13 | 34.59218 | -110.16675 | 37173 ft | 398 kts | 244° |
| 2026-05-05 22:13 | 34.58077 | -110.19720 | 36648 ft | 392 kts | 244° |
| 2026-05-05 22:13 | 34.56948 | -110.22730 | 35867 ft | 391 kts | 243° |
| 2026-05-05 22:13 | 34.55825 | -110.25724 | 35300 ft | 384 kts | 243° |
| 2026-05-05 22:14 | 34.54734 | -110.28627 | 34715 ft | 379 kts | 243° |
| 2026-05-05 22:14 | 34.53646 | -110.31520 | 34131 ft | 374 kts | 243° |
| 2026-05-05 22:14 | 34.52581 | -110.34350 | 33905 ft | 361 kts | 243° |
| 2026-05-05 22:14 | 34.51555 | -110.37076 | 33748 ft | 348 kts | 243° |
| 2026-05-05 22:15 | 34.50578 | -110.39668 | 33564 ft | 336 kts | 243° |
| 2026-05-05 22:15 | 34.49617 | -110.42216 | 33232 ft | 328 kts | 243° |
| 2026-05-05 22:15 | 34.48671 | -110.44715 | 32736 ft | 324 kts | 243° |
| 2026-05-05 22:15 | 34.47734 | -110.47190 | 32223 ft | 321 kts | 243° |
| 2026-05-05 22:16 | 34.46808 | -110.49635 | 31747 ft | 318 kts | 242° |
| 2026-05-05 22:16 | 34.45901 | -110.52028 | 31331 ft | 314 kts | 242° |
| 2026-05-05 22:16 | 34.44993 | -110.54423 | 30928 ft | 309 kts | 242° |
| 2026-05-05 22:16 | 34.44098 | -110.56781 | 30537 ft | 305 kts | 242° |
| 2026-05-05 22:17 | 34.43214 | -110.59110 | 30156 ft | 302 kts | 242° |
| 2026-05-05 22:17 | 34.42341 | -110.61407 | 29766 ft | 299 kts | 241° |
| 2026-05-05 22:17 | 34.41477 | -110.63678 | 29333 ft | 295 kts | 242° |
| 2026-05-05 22:17 | 34.40629 | -110.65909 | 28981 ft | 297 kts | 242° |
| 2026-05-05 22:18 | 34.39757 | -110.68195 | 28583 ft | 301 kts | 242° |
| 2026-05-05 22:18 | 34.38874 | -110.70513 | 28198 ft | 304 kts | 242° |
| 2026-05-05 22:18 | 34.37985 | -110.72844 | 27817 ft | 304 kts | 242° |
| 2026-05-05 22:18 | 34.37096 | -110.75174 | 27441 ft | 304 kts | 242° |
| 2026-05-05 22:19 | 34.36209 | -110.77499 | 27064 ft | 304 kts | 242° |
| 2026-05-05 22:19 | 34.35186 | -110.79734 | 26678 ft | 303 kts | 234° |
| 2026-05-05 22:19 | 34.33852 | -110.81670 | 26334 ft | 303 kts | 229° |
| 2026-05-05 22:19 | 34.32404 | -110.83538 | 25951 ft | 303 kts | 228° |
| 2026-05-05 22:20 | 34.30949 | -110.85392 | 25566 ft | 304 kts | 228° |
| 2026-05-05 22:20 | 34.29495 | -110.87248 | 25185 ft | 304 kts | 229° |
| 2026-05-05 22:20 | 34.28036 | -110.89117 | 24819 ft | 304 kts | 229° |
| 2026-05-05 22:20 | 34.26598 | -110.90965 | 24437 ft | 306 kts | 229° |
| 2026-05-05 22:21 | 34.25137 | -110.92847 | 24067 ft | 306 kts | 229° |
| 2026-05-05 22:21 | 34.23679 | -110.94728 | 23685 ft | 306 kts | 229° |
| 2026-05-05 22:21 | 34.22234 | -110.96592 | 23269 ft | 307 kts | 229° |
| 2026-05-05 22:21 | 34.20773 | -110.98477 | 22834 ft | 306 kts | 229° |
| 2026-05-05 22:22 | 34.19315 | -111.00357 | 22442 ft | 305 kts | 229° |
| 2026-05-05 22:22 | 34.17868 | -111.02224 | 22057 ft | 304 kts | 229° |
| 2026-05-05 22:22 | 34.16419 | -111.04091 | 21685 ft | 304 kts | 228° |
| 2026-05-05 22:22 | 34.14988 | -111.05933 | 21304 ft | 304 kts | 228° |
| 2026-05-05 22:23 | 34.13548 | -111.07785 | 20928 ft | 301 kts | 228° |
| 2026-05-05 22:23 | 34.12119 | -111.09624 | 20562 ft | 298 kts | 228° |
| 2026-05-05 22:23 | 34.10703 | -111.11444 | 20181 ft | 296 kts | 228° |
| 2026-05-05 22:23 | 34.09295 | -111.13250 | 19822 ft | 294 kts | 228° |
| 2026-05-05 22:24 | 34.07889 | -111.15055 | 19472 ft | 296 kts | 227° |
| 2026-05-05 22:24 | 34.06466 | -111.16883 | 19096 ft | 303 kts | 227° |
| 2026-05-05 22:24 | 34.05020 | -111.18740 | 18713 ft | 308 kts | 227° |
| 2026-05-05 22:24 | 34.03543 | -111.20634 | 18331 ft | 309 kts | 227° |
| 2026-05-05 22:25 | 34.02075 | -111.22515 | 17905 ft | 309 kts | 227° |
| 2026-05-05 22:25 | 34.00615 | -111.24382 | 17509 ft | 309 kts | 227° |
| 2026-05-05 22:25 | 33.99146 | -111.26263 | 17122 ft | 306 kts | 227° |
| 2026-05-05 22:25 | 33.97691 | -111.28126 | 16751 ft | 304 kts | 227° |
| 2026-05-05 22:26 | 33.96238 | -111.29985 | 16353 ft | 303 kts | 227° |
| 2026-05-05 22:26 | 33.94796 | -111.31829 | 15970 ft | 301 kts | 227° |
| 2026-05-05 22:26 | 33.93379 | -111.33640 | 15586 ft | 299 kts | 227° |
| 2026-05-05 22:26 | 33.91952 | -111.35462 | 15206 ft | 297 kts | 227° |
| 2026-05-05 22:27 | 33.90531 | -111.37276 | 14819 ft | 296 kts | 227° |
| 2026-05-05 22:27 | 33.89106 | -111.39092 | 14458 ft | 300 kts | 227° |
| 2026-05-05 22:27 | 33.87651 | -111.40869 | 14152 ft | 302 kts | 221° |
| 2026-05-05 22:27 | 33.85975 | -111.42393 | 13947 ft | 301 kts | 216° |
| 2026-05-05 22:28 | 33.84250 | -111.43798 | 13710 ft | 296 kts | 215° |
| 2026-05-05 22:28 | 33.82561 | -111.45197 | 13255 ft | 295 kts | 216° |
| 2026-05-05 22:28 | 33.80883 | -111.46617 | 12698 ft | 300 kts | 216° |
| 2026-05-05 22:28 | 33.79221 | -111.48037 | 12498 ft | 292 kts | 217° |
| 2026-05-05 22:29 | 33.77588 | -111.49437 | 12173 ft | 288 kts | 217° |
| 2026-05-05 22:29 | 33.75920 | -111.50872 | 11515 ft | 296 kts | 217° |
| 2026-05-05 22:29 | 33.74260 | -111.52297 | 11272 ft | 289 kts | 217° |
| 2026-05-05 22:29 | 33.72642 | -111.53686 | 10949 ft | 285 kts | 216° |
| 2026-05-05 22:30 | 33.71026 | -111.55074 | 10697 ft | 280 kts | 216° |
| 2026-05-05 22:30 | 33.69487 | -111.56396 | 10636 ft | 269 kts | 216° |
| 2026-05-05 22:30 | 33.67991 | -111.57679 | 10558 ft | 258 kts | 216° |
| 2026-05-05 22:30 | 33.66559 | -111.58906 | 10498 ft | 248 kts | 216° |
| 2026-05-05 22:31 | 33.65185 | -111.60082 | 10410 ft | 238 kts | 216° |
| 2026-05-05 22:31 | 33.63854 | -111.61216 | 10274 ft | 230 kts | 216° |
| 2026-05-05 22:31 | 33.62562 | -111.62299 | 10092 ft | 225 kts | 216° |
| 2026-05-05 22:31 | 33.61284 | -111.63367 | 9850 ft | 223 kts | 216° |
| 2026-05-05 22:32 | 33.60012 | -111.64431 | 9513 ft | 223 kts | 216° |
| 2026-05-05 22:32 | 33.58768 | -111.65470 | 9108 ft | 219 kts | 216° |
| 2026-05-05 22:32 | 33.57524 | -111.66510 | 8722 ft | 215 kts | 216° |
| 2026-05-05 22:32 | 33.56285 | -111.67546 | 8209 ft | 219 kts | 216° |
| 2026-05-05 22:33 | 33.55026 | -111.68604 | 7857 ft | 221 kts | 217° |
| 2026-05-05 22:33 | 33.53800 | -111.69641 | 7682 ft | 217 kts | 217° |
| 2026-05-05 22:33 | 33.52569 | -111.70682 | 7424 ft | 216 kts | 217° |
| 2026-05-05 22:33 | 33.51326 | -111.71732 | 7067 ft | 219 kts | 216° |
| 2026-05-05 22:34 | 33.50074 | -111.72788 | 6777 ft | 219 kts | 217° |
| 2026-05-05 22:34 | 33.48838 | -111.73830 | 6572 ft | 215 kts | 217° |
| 2026-05-05 22:34 | 33.47635 | -111.74844 | 6287 ft | 215 kts | 217° |
| 2026-05-05 22:34 | 33.46540 | -111.76023 | 5812 ft | 215 kts | 237° |
| 2026-05-05 22:35 | 33.45807 | -111.77597 | 5386 ft | 216 kts | 242° |
| 2026-05-05 22:35 | 33.45077 | -111.79139 | 5202 ft | 211 kts | 241° |
| 2026-05-05 22:35 | 33.44357 | -111.80642 | 4961 ft | 206 kts | 242° |
| 2026-05-05 22:35 | 33.43986 | -111.82224 | 4652 ft | 195 kts | 270° |
| 2026-05-05 22:36 | 33.44039 | -111.83835 | 4226 ft | 192 kts | 270° |
| 2026-05-05 22:36 | 33.44056 | -111.85439 | 4031 ft | 195 kts | 269° |
| 2026-05-05 22:36 | 33.44062 | -111.87075 | 3990 ft | 196 kts | 268° |
| 2026-05-05 22:36 | 33.44048 | -111.88685 | 3998 ft | 193 kts | 270° |
| 2026-05-05 22:37 | 33.44416 | -111.90193 | 3984 ft | 193 kts | 305° |
| 2026-05-05 22:37 | 33.45516 | -111.91127 | 4004 ft | 203 kts | 342° |
| 2026-05-05 22:37 | 33.46461 | -111.91220 | 3987 ft | 210 kts | 7° |
| 2026-05-05 22:37 | 33.47792 | -111.90477 | 4004 ft | 217 kts | 43° |
| 2026-05-05 22:38 | 33.48618 | -111.88970 | 4014 ft | 221 kts | 66° |
| 2026-05-05 22:38 | 33.49193 | -111.87241 | 3986 ft | 224 kts | 69° |
| 2026-05-05 22:38 | 33.49733 | -111.85515 | 3989 ft | 223 kts | 70° |
| 2026-05-05 22:38 | 33.50273 | -111.83777 | 3982 ft | 222 kts | 69° |
| 2026-05-05 22:39 | 33.50808 | -111.82030 | 4009 ft | 225 kts | 70° |
| 2026-05-05 22:39 | 33.51350 | -111.80275 | 4013 ft | 224 kts | 70° |
| 2026-05-05 22:39 | 33.51872 | -111.78516 | 3985 ft | 222 kts | 79° |
| 2026-05-05 22:39 | 33.51825 | -111.76736 | 3987 ft | 215 kts | 115° |
| 2026-05-05 22:40 | 33.50977 | -111.75349 | 3988 ft | 204 kts | 151° |
| 2026-05-05 22:40 | 33.49684 | -111.74823 | 4024 ft | 197 kts | 179° |
| 2026-05-05 22:40 | 33.48308 | -111.74646 | 3992 ft | 196 kts | 179° |
| 2026-05-05 22:40 | 33.46969 | -111.74481 | 3984 ft | 191 kts | 180° |
| 2026-05-05 22:41 | 33.45650 | -111.74473 | 3977 ft | 188 kts | 202° |
| 2026-05-05 22:41 | 33.44657 | -111.75327 | 3995 ft | 172 kts | 242° |
| 2026-05-05 22:41 | 33.44387 | -111.76650 | 4017 ft | 166 kts | 263° |
| 2026-05-05 22:41 | 33.44245 | -111.78056 | 4019 ft | 172 kts | 262° |
| 2026-05-05 22:42 | 33.44122 | -111.79477 | 3985 ft | 170 kts | 265° |
| 2026-05-05 22:42 | 33.44078 | -111.80880 | 3997 ft | 167 kts | 267° |
| 2026-05-05 22:42 | 33.44065 | -111.82285 | 3874 ft | 170 kts | 268° |
| 2026-05-05 22:42 | 33.44063 | -111.83673 | 3652 ft | 166 kts | 269° |
| 2026-05-05 22:43 | 33.44065 | -111.85005 | 3473 ft | 154 kts | 269° |
| 2026-05-05 22:43 | 33.44067 | -111.86264 | 3249 ft | 149 kts | 267° |
| 2026-05-05 22:43 | 33.44067 | -111.87518 | 3053 ft | 152 kts | 268° |
| 2026-05-05 22:43 | 33.44069 | -111.88776 | 2854 ft | 150 kts | 269° |
| 2026-05-05 22:44 | 33.44072 | -111.90000 | 2673 ft | 146 kts | 268° |
| 2026-05-05 22:44 | 33.44073 | -111.91202 | 2487 ft | 146 kts | 268° |
| 2026-05-05 22:44 | 33.44072 | -111.92463 | 2296 ft | 154 kts | 268° |
| 2026-05-05 22:44 | 33.44075 | -111.93765 | 2082 ft | 154 kts | 270° |
| 2026-05-05 22:45 | 33.44077 | -111.95004 | 1882 ft | 147 kts | 269° |
| 2026-05-05 22:45 | 33.44077 | -111.96228 | 1706 ft | 150 kts | 269° |
| 2026-05-05 22:45 | 33.44082 | -111.97455 | 1462 ft | 142 kts | 269° |
| 2026-05-05 22:45 | 33.44083 | -111.98630 | 1277 ft | 141 kts | 268° |
| 2026-05-05 22:46 | 33.44084 | -111.99818 | 1138 ft | 142 kts | 269° |
| 2026-05-05 22:46 | 33.44083 | -112.00874 | 1129 ft | 107 kts | 270° |
| 2026-05-05 22:46 | 33.44084 | -112.01544 | 1132 ft | 47 kts | 270° |
| 2026-05-05 22:46 | 33.44085 | -112.01844 | 1129 ft | 37 kts | 269° |
| 2026-05-05 22:47 | 33.44065 | -112.02003 | 1117 ft | 16 kts | 235° |
| 2026-05-05 22:47 | 33.43978 | -112.01989 | 1134 ft | 16 kts | 112° |
| 2026-05-05 22:47 | 33.43976 | -112.01859 | 1132 ft | 16 kts | 90° |
| 2026-05-05 22:47 | 33.43975 | -112.01727 | 1133 ft | 16 kts | 90° |
| 2026-05-05 22:48 | 33.43975 | -112.01596 | 1133 ft | 16 kts | 90° |
| 2026-05-05 22:48 | 33.43975 | -112.01464 | 1133 ft | 16 kts | 90° |
| 2026-05-05 22:48 | 33.43974 | -112.01333 | 1133 ft | 16 kts | 90° |
| 2026-05-05 22:48 | 33.43974 | -112.01203 | 1133 ft | 16 kts | 90° |
| 2026-05-05 22:49 | 33.43973 | -112.01072 | 1132 ft | 16 kts | 90° |
| 2026-05-05 22:49 | 33.43974 | -112.00941 | 1132 ft | 16 kts | 89° |
| 2026-05-05 22:49 | 33.43975 | -112.00809 | 1132 ft | 16 kts | 90° |
| 2026-05-05 22:49 | 33.43974 | -112.00678 | 1132 ft | 16 kts | 90° |
| 2026-05-05 22:50 | 33.43973 | -112.00546 | 1123 ft | 16 kts | 90° |
| 2026-05-05 22:50 | 33.43973 | -112.00416 | 1123 ft | 16 kts | 90° |
| 2026-05-05 22:50 | 33.43973 | -112.00284 | 1132 ft | 16 kts | 90° |
| 2026-05-05 22:50 | 33.43973 | -112.00157 | 1132 ft | 13 kts | 90° |
| 2026-05-05 22:51 | 33.43950 | -112.00071 | 1132 ft | 10 kts | 141° |
| 2026-05-05 22:51 | 33.43887 | -112.00047 | 1132 ft | 9 kts | 171° |
| 2026-05-05 22:51 | 33.43868 | -112.00039 | 1132 ft | 3 kts | 152° |
| 2026-05-05 22:51 | 33.43861 | -112.00032 | 1131 ft | 2 kts | 138° |
| 2026-05-05 22:52 | 33.43844 | -112.00008 | 1133 ft | 4 kts | 130° |
| 2026-05-05 22:52 | 33.43838 | -112.00000 | 1134 ft | 0 kts | 130° |
| 2026-05-05 22:52 | 33.43837 | -111.99999 | 1134 ft | 0 kts | 130° |
| 2026-05-05 22:52 | 33.43835 | -111.99995 | 1133 ft | 1 kts | 130° |
| 2026-05-05 22:53 | 33.43834 | -111.99994 | 1133 ft | 0 kts | 130° |